sensor_id;sensor_type;location;lat;lon;timestamp;temperature;humidity
14061;DHT22;7105;43.616;1.434;2022-07-24T00:00:22;23.60;99.90
14061;DHT22;7105;43.616;1.434;2022-07-24T00:02:48;23.50;99.90
14061;DHT22;7105;43.616;1.434;2022-07-24T00:05:14;23.40;99.90
14061;DHT22;7105;43.616;1.434;2022-07-24T00:07:40;23.40;99.90
14061;DHT22;7105;43.616;1.434;2022-07-24T00:10:06;23.40;99.90
14061;DHT22;7105;43.616;1.434;2022-07-24T00:12:32;23.50;99.90
14061;DHT22;7105;43.616;1.434;2022-07-24T00:14:58;23.40;99.90
14061;DHT22;7105;43.616;1.434;2022-07-24T00:17:24;23.40;99.90
14061;DHT22;7105;43.616;1.434;2022-07-24T00:19:49;23.40;99.90
14061;DHT22;7105;43.616;1.434;2022-07-24T00:22:15;23.30;99.90
14061;DHT22;7105;43.616;1.434;2022-07-24T00:24:41;23.30;99.90
14061;DHT22;7105;43.616;1.434;2022-07-24T00:27:06;23.30;99.90
14061;DHT22;7105;43.616;1.434;2022-07-24T00:29:32;23.30;99.90
14061;DHT22;7105;43.616;1.434;2022-07-24T00:31:58;23.20;99.90
14061;DHT22;7105;43.616;1.434;2022-07-24T00:34:23;23.20;99.90
14061;DHT22;7105;43.616;1.434;2022-07-24T00:36:49;23.10;99.90
14061;DHT22;7105;43.616;1.434;2022-07-24T00:39:15;23.10;99.90
14061;DHT22;7105;43.616;1.434;2022-07-24T00:41:40;23.10;99.90
14061;DHT22;7105;43.616;1.434;2022-07-24T00:44:11;23.00;99.90
14061;DHT22;7105;43.616;1.434;2022-07-24T00:46:38;23.10;99.90
14061;DHT22;7105;43.616;1.434;2022-07-24T00:49:06;23.10;99.90
14061;DHT22;7105;43.616;1.434;2022-07-24T00:51:33;23.00;99.90
14061;DHT22;7105;43.616;1.434;2022-07-24T00:53:59;22.90;99.90
14061;DHT22;7105;43.616;1.434;2022-07-24T00:56:25;22.90;99.90
14061;DHT22;7105;43.616;1.434;2022-07-24T00:58:51;23.00;99.90
14061;DHT22;7105;43.616;1.434;2022-07-24T01:01:17;22.90;99.90
14061;DHT22;7105;43.616;1.434;2022-07-24T01:03:43;22.80;99.90
14061;DHT22;7105;43.616;1.434;2022-07-24T01:06:11;22.80;99.90
14061;DHT22;7105;43.616;1.434;2022-07-24T01:08:37;22.90;99.90
14061;DHT22;7105;43.616;1.434;2022-07-24T01:11:04;22.90;99.90
14061;DHT22;7105;43.616;1.434;2022-07-24T01:13:30;22.80;99.90
14061;DHT22;7105;43.616;1.434;2022-07-24T01:15:57;22.70;99.90
14061;DHT22;7105;43.616;1.434;2022-07-24T01:18:23;22.70;99.90
14061;DHT22;7105;43.616;1.434;2022-07-24T01:20:50;22.60;99.90
14061;DHT22;7105;43.616;1.434;2022-07-24T01:23:16;22.70;99.90
14061;DHT22;7105;43.616;1.434;2022-07-24T01:25:42;22.70;99.90
14061;DHT22;7105;43.616;1.434;2022-07-24T01:28:09;22.60;99.90
14061;DHT22;7105;43.616;1.434;2022-07-24T01:30:34;22.60;99.90
14061;DHT22;7105;43.616;1.434;2022-07-24T01:33:00;22.60;99.90
14061;DHT22;7105;43.616;1.434;2022-07-24T01:35:26;22.60;99.90
14061;DHT22;7105;43.616;1.434;2022-07-24T01:37:52;22.60;99.90
14061;DHT22;7105;43.616;1.434;2022-07-24T01:40:20;22.50;99.90
14061;DHT22;7105;43.616;1.434;2022-07-24T01:42:47;22.40;99.90
14061;DHT22;7105;43.616;1.434;2022-07-24T01:45:13;22.40;99.90
14061;DHT22;7105;43.616;1.434;2022-07-24T01:47:40;22.40;99.90
14061;DHT22;7105;43.616;1.434;2022-07-24T01:50:07;22.40;99.90
14061;DHT22;7105;43.616;1.434;2022-07-24T01:52:33;22.40;99.90
14061;DHT22;7105;43.616;1.434;2022-07-24T01:54:58;22.30;99.90
14061;DHT22;7105;43.616;1.434;2022-07-24T01:57:24;22.30;99.90
14061;DHT22;7105;43.616;1.434;2022-07-24T01:59:50;22.30;99.90
14061;DHT22;7105;43.616;1.434;2022-07-24T02:02:16;22.20;99.90
14061;DHT22;7105;43.616;1.434;2022-07-24T02:04:41;22.30;99.90
14061;DHT22;7105;43.616;1.434;2022-07-24T02:07:07;22.30;99.90
14061;DHT22;7105;43.616;1.434;2022-07-24T02:09:32;22.20;99.90
14061;DHT22;7105;43.616;1.434;2022-07-24T02:11:58;22.10;99.90
14061;DHT22;7105;43.616;1.434;2022-07-24T02:14:24;22.00;99.90
14061;DHT22;7105;43.616;1.434;2022-07-24T02:16:50;21.90;99.90
14061;DHT22;7105;43.616;1.434;2022-07-24T02:19:15;22.00;99.90
14061;DHT22;7105;43.616;1.434;2022-07-24T02:21:41;22.00;99.90
14061;DHT22;7105;43.616;1.434;2022-07-24T02:24:07;22.00;99.90
14061;DHT22;7105;43.616;1.434;2022-07-24T02:26:33;22.00;99.90
14061;DHT22;7105;43.616;1.434;2022-07-24T02:28:59;22.10;99.90
14061;DHT22;7105;43.616;1.434;2022-07-24T02:31:24;22.10;99.90
14061;DHT22;7105;43.616;1.434;2022-07-24T02:33:50;22.00;99.90
14061;DHT22;7105;43.616;1.434;2022-07-24T02:36:16;22.10;99.90
14061;DHT22;7105;43.616;1.434;2022-07-24T02:38:43;22.10;99.90
14061;DHT22;7105;43.616;1.434;2022-07-24T02:41:09;22.00;99.90
14061;DHT22;7105;43.616;1.434;2022-07-24T02:43:34;22.00;99.90
14061;DHT22;7105;43.616;1.434;2022-07-24T02:46:00;22.00;99.90
14061;DHT22;7105;43.616;1.434;2022-07-24T02:48:25;22.00;99.90
14061;DHT22;7105;43.616;1.434;2022-07-24T02:50:51;22.00;99.90
14061;DHT22;7105;43.616;1.434;2022-07-24T02:53:17;22.10;99.90
14061;DHT22;7105;43.616;1.434;2022-07-24T02:55:44;22.00;99.90
14061;DHT22;7105;43.616;1.434;2022-07-24T02:58:10;22.00;99.90
14061;DHT22;7105;43.616;1.434;2022-07-24T03:00:35;22.00;99.90
14061;DHT22;7105;43.616;1.434;2022-07-24T03:03:01;22.00;99.90
14061;DHT22;7105;43.616;1.434;2022-07-24T03:05:27;21.80;99.90
14061;DHT22;7105;43.616;1.434;2022-07-24T03:07:53;21.80;99.90
14061;DHT22;7105;43.616;1.434;2022-07-24T03:10:19;21.70;99.90
14061;DHT22;7105;43.616;1.434;2022-07-24T03:12:45;21.60;99.90
14061;DHT22;7105;43.616;1.434;2022-07-24T03:15:11;21.60;99.90
14061;DHT22;7105;43.616;1.434;2022-07-24T03:17:37;21.60;99.90
14061;DHT22;7105;43.616;1.434;2022-07-24T03:20:04;21.60;99.90
14061;DHT22;7105;43.616;1.434;2022-07-24T03:22:30;21.60;99.90
14061;DHT22;7105;43.616;1.434;2022-07-24T03:24:55;21.60;99.90
14061;DHT22;7105;43.616;1.434;2022-07-24T03:27:21;21.60;99.90
14061;DHT22;7105;43.616;1.434;2022-07-24T03:29:47;21.60;99.90
14061;DHT22;7105;43.616;1.434;2022-07-24T03:32:13;21.60;99.90
14061;DHT22;7105;43.616;1.434;2022-07-24T03:34:38;21.50;99.90
14061;DHT22;7105;43.616;1.434;2022-07-24T03:37:04;21.60;99.90
14061;DHT22;7105;43.616;1.434;2022-07-24T03:39:30;21.60;99.90
14061;DHT22;7105;43.616;1.434;2022-07-24T03:41:55;21.60;99.90
14061;DHT22;7105;43.616;1.434;2022-07-24T03:44:21;21.60;99.90
14061;DHT22;7105;43.616;1.434;2022-07-24T03:46:47;21.60;99.90
14061;DHT22;7105;43.616;1.434;2022-07-24T03:49:12;21.60;99.90
14061;DHT22;7105;43.616;1.434;2022-07-24T03:51:38;21.50;99.90
14061;DHT22;7105;43.616;1.434;2022-07-24T03:54:04;21.40;99.90
14061;DHT22;7105;43.616;1.434;2022-07-24T03:56:30;21.40;99.90
14061;DHT22;7105;43.616;1.434;2022-07-24T03:58:56;21.30;99.90
14061;DHT22;7105;43.616;1.434;2022-07-24T04:01:22;21.40;99.90
14061;DHT22;7105;43.616;1.434;2022-07-24T04:03:48;21.40;99.90
14061;DHT22;7105;43.616;1.434;2022-07-24T04:06:13;21.30;99.90
14061;DHT22;7105;43.616;1.434;2022-07-24T04:08:39;21.20;99.90
14061;DHT22;7105;43.616;1.434;2022-07-24T04:11:05;21.30;99.90
14061;DHT22;7105;43.616;1.434;2022-07-24T04:13:33;21.30;99.90
14061;DHT22;7105;43.616;1.434;2022-07-24T04:15:59;21.20;99.90
14061;DHT22;7105;43.616;1.434;2022-07-24T04:18:25;21.10;99.90
14061;DHT22;7105;43.616;1.434;2022-07-24T04:20:51;21.10;99.90
14061;DHT22;7105;43.616;1.434;2022-07-24T04:23:17;21.10;99.90
14061;DHT22;7105;43.616;1.434;2022-07-24T04:25:42;21.00;99.90
14061;DHT22;7105;43.616;1.434;2022-07-24T04:28:08;21.10;99.90
14061;DHT22;7105;43.616;1.434;2022-07-24T04:30:34;21.10;99.90
14061;DHT22;7105;43.616;1.434;2022-07-24T04:33:01;21.10;99.90
14061;DHT22;7105;43.616;1.434;2022-07-24T04:35:28;21.00;99.90
14061;DHT22;7105;43.616;1.434;2022-07-24T04:37:53;21.00;99.90
14061;DHT22;7105;43.616;1.434;2022-07-24T04:40:19;21.00;99.90
14061;DHT22;7105;43.616;1.434;2022-07-24T04:42:45;21.00;99.90
14061;DHT22;7105;43.616;1.434;2022-07-24T04:45:10;21.00;99.90
14061;DHT22;7105;43.616;1.434;2022-07-24T04:47:37;21.10;99.90
14061;DHT22;7105;43.616;1.434;2022-07-24T04:50:05;21.20;99.90
14061;DHT22;7105;43.616;1.434;2022-07-24T04:52:32;21.20;99.90
14061;DHT22;7105;43.616;1.434;2022-07-24T04:54:57;21.10;99.90
14061;DHT22;7105;43.616;1.434;2022-07-24T04:57:23;21.20;99.90
14061;DHT22;7105;43.616;1.434;2022-07-24T04:59:49;21.70;99.90
14061;DHT22;7105;43.616;1.434;2022-07-24T05:02:14;22.80;99.90
14061;DHT22;7105;43.616;1.434;2022-07-24T05:04:40;23.70;99.90
14061;DHT22;7105;43.616;1.434;2022-07-24T05:07:06;24.30;99.90
14061;DHT22;7105;43.616;1.434;2022-07-24T05:09:32;24.90;99.90
14061;DHT22;7105;43.616;1.434;2022-07-24T05:11:57;25.30;99.90
14061;DHT22;7105;43.616;1.434;2022-07-24T05:14:23;25.70;99.90
14061;DHT22;7105;43.616;1.434;2022-07-24T05:16:49;25.90;99.90
14061;DHT22;7105;43.616;1.434;2022-07-24T05:19:14;26.10;99.90
14061;DHT22;7105;43.616;1.434;2022-07-24T05:21:40;26.70;99.90
14061;DHT22;7105;43.616;1.434;2022-07-24T05:24:06;27.20;99.90
14061;DHT22;7105;43.616;1.434;2022-07-24T05:26:32;27.10;99.90
14061;DHT22;7105;43.616;1.434;2022-07-24T05:29:02;27.50;99.90
14061;DHT22;7105;43.616;1.434;2022-07-24T05:31:28;27.60;99.90
14061;DHT22;7105;43.616;1.434;2022-07-24T05:33:54;28.20;99.90
14061;DHT22;7105;43.616;1.434;2022-07-24T05:36:20;29.00;99.90
14061;DHT22;7105;43.616;1.434;2022-07-24T05:38:46;29.00;99.90
14061;DHT22;7105;43.616;1.434;2022-07-24T05:41:12;29.40;99.90
14061;DHT22;7105;43.616;1.434;2022-07-24T05:43:38;29.90;99.90
14061;DHT22;7105;43.616;1.434;2022-07-24T05:46:04;30.10;99.90
14061;DHT22;7105;43.616;1.434;2022-07-24T05:48:30;30.10;99.90
14061;DHT22;7105;43.616;1.434;2022-07-24T05:50:55;30.30;99.90
14061;DHT22;7105;43.616;1.434;2022-07-24T05:53:22;31.20;99.90
14061;DHT22;7105;43.616;1.434;2022-07-24T05:55:48;31.50;99.90
14061;DHT22;7105;43.616;1.434;2022-07-24T05:58:14;31.60;99.90
14061;DHT22;7105;43.616;1.434;2022-07-24T06:00:41;31.30;99.90
14061;DHT22;7105;43.616;1.434;2022-07-24T06:03:06;31.40;99.90
14061;DHT22;7105;43.616;1.434;2022-07-24T06:05:32;30.80;99.90
14061;DHT22;7105;43.616;1.434;2022-07-24T06:07:58;29.90;99.90
14061;DHT22;7105;43.616;1.434;2022-07-24T06:10:24;31.20;99.90
14061;DHT22;7105;43.616;1.434;2022-07-24T06:12:49;32.40;99.90
14061;DHT22;7105;43.616;1.434;2022-07-24T06:15:15;32.30;99.90
14061;DHT22;7105;43.616;1.434;2022-07-24T06:17:41;32.90;99.90
14061;DHT22;7105;43.616;1.434;2022-07-24T06:20:08;32.90;99.90
14061;DHT22;7105;43.616;1.434;2022-07-24T06:22:35;33.50;99.90
14061;DHT22;7105;43.616;1.434;2022-07-24T06:25:01;33.80;99.90
14061;DHT22;7105;43.616;1.434;2022-07-24T06:27:26;33.10;99.90
14061;DHT22;7105;43.616;1.434;2022-07-24T06:29:52;33.00;99.90
14061;DHT22;7105;43.616;1.434;2022-07-24T06:32:18;34.00;99.90
14061;DHT22;7105;43.616;1.434;2022-07-24T06:34:43;34.70;99.90
14061;DHT22;7105;43.616;1.434;2022-07-24T06:37:09;35.10;99.90
14061;DHT22;7105;43.616;1.434;2022-07-24T06:39:34;34.10;99.90
14061;DHT22;7105;43.616;1.434;2022-07-24T06:42:00;35.10;99.90
14061;DHT22;7105;43.616;1.434;2022-07-24T06:44:26;34.20;99.90
14061;DHT22;7105;43.616;1.434;2022-07-24T06:46:52;34.30;99.90
14061;DHT22;7105;43.616;1.434;2022-07-24T06:49:17;35.10;99.90
14061;DHT22;7105;43.616;1.434;2022-07-24T06:51:43;35.30;99.90
14061;DHT22;7105;43.616;1.434;2022-07-24T06:54:09;36.00;99.90
14061;DHT22;7105;43.616;1.434;2022-07-24T06:56:35;36.30;99.90
14061;DHT22;7105;43.616;1.434;2022-07-24T06:59:01;35.20;99.90
14061;DHT22;7105;43.616;1.434;2022-07-24T07:01:27;36.10;99.90
14061;DHT22;7105;43.616;1.434;2022-07-24T07:03:53;37.70;99.90
14061;DHT22;7105;43.616;1.434;2022-07-24T07:06:19;37.00;99.90
14061;DHT22;7105;43.616;1.434;2022-07-24T07:08:45;36.50;99.90
14061;DHT22;7105;43.616;1.434;2022-07-24T07:11:11;36.90;99.90
14061;DHT22;7105;43.616;1.434;2022-07-24T07:13:36;37.50;99.90
14061;DHT22;7105;43.616;1.434;2022-07-24T07:16:02;37.70;99.90
14061;DHT22;7105;43.616;1.434;2022-07-24T07:18:28;38.00;99.90
14061;DHT22;7105;43.616;1.434;2022-07-24T07:20:54;39.10;99.90
14061;DHT22;7105;43.616;1.434;2022-07-24T07:23:22;39.40;99.90
14061;DHT22;7105;43.616;1.434;2022-07-24T07:25:48;39.50;99.90
14061;DHT22;7105;43.616;1.434;2022-07-24T07:28:14;39.20;99.90
14061;DHT22;7105;43.616;1.434;2022-07-24T07:30:40;38.40;99.90
14061;DHT22;7105;43.616;1.434;2022-07-24T07:33:06;38.60;99.90
14061;DHT22;7105;43.616;1.434;2022-07-24T07:35:31;37.10;99.90
14061;DHT22;7105;43.616;1.434;2022-07-24T07:37:57;37.60;99.90
14061;DHT22;7105;43.616;1.434;2022-07-24T07:40:25;39.30;99.90
14061;DHT22;7105;43.616;1.434;2022-07-24T07:42:50;37.50;99.90
14061;DHT22;7105;43.616;1.434;2022-07-24T07:45:16;38.50;99.90
14061;DHT22;7105;43.616;1.434;2022-07-24T07:47:42;39.20;99.90
14061;DHT22;7105;43.616;1.434;2022-07-24T07:50:08;40.60;99.90
14061;DHT22;7105;43.616;1.434;2022-07-24T07:52:34;40.30;99.90
14061;DHT22;7105;43.616;1.434;2022-07-24T07:55:00;41.10;99.90
14061;DHT22;7105;43.616;1.434;2022-07-24T07:57:26;40.30;99.90
14061;DHT22;7105;43.616;1.434;2022-07-24T07:59:52;40.60;99.90
14061;DHT22;7105;43.616;1.434;2022-07-24T08:02:18;40.90;99.90
14061;DHT22;7105;43.616;1.434;2022-07-24T08:04:43;38.60;99.90
14061;DHT22;7105;43.616;1.434;2022-07-24T08:07:10;40.20;99.90
14061;DHT22;7105;43.616;1.434;2022-07-24T08:09:36;39.50;99.90
14061;DHT22;7105;43.616;1.434;2022-07-24T08:12:03;37.70;99.90
14061;DHT22;7105;43.616;1.434;2022-07-24T08:14:29;40.00;98.70
14061;DHT22;7105;43.616;1.434;2022-07-24T08:16:55;41.20;97.90
14061;DHT22;7105;43.616;1.434;2022-07-24T08:19:21;39.90;98.20
14061;DHT22;7105;43.616;1.434;2022-07-24T08:21:46;39.20;99.20
14061;DHT22;7105;43.616;1.434;2022-07-24T08:24:12;42.10;96.50
14061;DHT22;7105;43.616;1.434;2022-07-24T08:26:38;42.30;95.30
14061;DHT22;7105;43.616;1.434;2022-07-24T08:29:04;42.60;94.60
14061;DHT22;7105;43.616;1.434;2022-07-24T08:31:29;42.70;94.10
14061;DHT22;7105;43.616;1.434;2022-07-24T08:33:55;42.90;93.00
14061;DHT22;7105;43.616;1.434;2022-07-24T08:36:21;42.90;92.90
14061;DHT22;7105;43.616;1.434;2022-07-24T08:38:47;42.90;92.50
14061;DHT22;7105;43.616;1.434;2022-07-24T08:41:13;42.60;93.00
14061;DHT22;7105;43.616;1.434;2022-07-24T08:43:39;42.30;92.50
14061;DHT22;7105;43.616;1.434;2022-07-24T08:46:08;40.40;93.30
14061;DHT22;7105;43.616;1.434;2022-07-24T08:48:34;37.60;94.70
14061;DHT22;7105;43.616;1.434;2022-07-24T08:51:02;38.40;94.90
14061;DHT22;7105;43.616;1.434;2022-07-24T08:53:27;39.40;94.60
14061;DHT22;7105;43.616;1.434;2022-07-24T08:55:53;39.30;94.60
14061;DHT22;7105;43.616;1.434;2022-07-24T08:58:19;39.40;94.20
14061;DHT22;7105;43.616;1.434;2022-07-24T09:00:44;39.60;93.70
14061;DHT22;7105;43.616;1.434;2022-07-24T09:03:11;39.00;93.20
14061;DHT22;7105;43.616;1.434;2022-07-24T09:08:19;39.40;94.20
14061;DHT22;7105;43.616;1.434;2022-07-24T09:10:59;39.40;94.70
14061;DHT22;7105;43.616;1.434;2022-07-24T09:13:27;34.90;97.70
14061;DHT22;7105;43.616;1.434;2022-07-24T09:15:55;33.40;99.90
14061;DHT22;7105;43.616;1.434;2022-07-24T09:18:31;31.90;99.90
14061;DHT22;7105;43.616;1.434;2022-07-24T09:21:00;31.80;99.90
14061;DHT22;7105;43.616;1.434;2022-07-24T09:23:39;31.80;99.90
14061;DHT22;7105;43.616;1.434;2022-07-24T09:26:05;31.20;99.90
14061;DHT22;7105;43.616;1.434;2022-07-24T09:28:47;31.50;99.90
14061;DHT22;7105;43.616;1.434;2022-07-24T09:31:13;31.30;99.90
14061;DHT22;7105;43.616;1.434;2022-07-24T09:33:38;31.20;99.90
14061;DHT22;7105;43.616;1.434;2022-07-24T09:36:12;31.20;99.90
14061;DHT22;7105;43.616;1.434;2022-07-24T09:38:38;30.90;99.90
14061;DHT22;7105;43.616;1.434;2022-07-24T09:41:09;31.10;99.90
14061;DHT22;7105;43.616;1.434;2022-07-24T09:43:35;31.30;99.90
14061;DHT22;7105;43.616;1.434;2022-07-24T09:46:09;31.80;99.90
14061;DHT22;7105;43.616;1.434;2022-07-24T09:48:36;31.60;99.90
14061;DHT22;7105;43.616;1.434;2022-07-24T09:51:12;32.20;99.90
14061;DHT22;7105;43.616;1.434;2022-07-24T09:53:38;32.20;99.90
14061;DHT22;7105;43.616;1.434;2022-07-24T09:56:10;31.50;99.90
14061;DHT22;7105;43.616;1.434;2022-07-24T09:58:41;31.00;99.90
14061;DHT22;7105;43.616;1.434;2022-07-24T10:01:14;31.10;99.90
14061;DHT22;7105;43.616;1.434;2022-07-24T10:03:42;31.30;99.90
14061;DHT22;7105;43.616;1.434;2022-07-24T10:06:09;31.40;99.90
14061;DHT22;7105;43.616;1.434;2022-07-24T10:08:38;31.10;99.90
14061;DHT22;7105;43.616;1.434;2022-07-24T10:11:04;30.50;99.90
14061;DHT22;7105;43.616;1.434;2022-07-24T10:13:31;30.70;99.90
14061;DHT22;7105;43.616;1.434;2022-07-24T10:18:47;31.50;99.90
14061;DHT22;7105;43.616;1.434;2022-07-24T10:21:22;32.10;99.90
14061;DHT22;7105;43.616;1.434;2022-07-24T10:27:03;32.00;99.90
14061;DHT22;7105;43.616;1.434;2022-07-24T10:29:33;32.00;99.90
14061;DHT22;7105;43.616;1.434;2022-07-24T10:31:59;31.50;99.90
14061;DHT22;7105;43.616;1.434;2022-07-24T10:34:51;31.10;99.10
14061;DHT22;7105;43.616;1.434;2022-07-24T10:40:24;31.40;97.60
14061;DHT22;7105;43.616;1.434;2022-07-24T10:45:36;31.80;96.50
14061;DHT22;7105;43.616;1.434;2022-07-24T10:59:06;32.50;97.70
14061;DHT22;7105;43.616;1.434;2022-07-24T11:01:34;32.00;97.30
14061;DHT22;7105;43.616;1.434;2022-07-24T11:04:03;32.00;97.90
14061;DHT22;7105;43.616;1.434;2022-07-24T11:09:29;31.60;98.10
14061;DHT22;7105;43.616;1.434;2022-07-24T11:14:25;31.60;98.30
14061;DHT22;7105;43.616;1.434;2022-07-24T11:16:52;31.90;97.80
14061;DHT22;7105;43.616;1.434;2022-07-24T11:21:45;31.50;97.70
14061;DHT22;7105;43.616;1.434;2022-07-24T11:26:51;32.20;97.60
14061;DHT22;7105;43.616;1.434;2022-07-24T11:31:50;32.30;96.60
14061;DHT22;7105;43.616;1.434;2022-07-24T11:34:18;32.70;95.60
14061;DHT22;7105;43.616;1.434;2022-07-24T11:36:46;32.60;96.10
14061;DHT22;7105;43.616;1.434;2022-07-24T11:39:14;32.20;96.10
14061;DHT22;7105;43.616;1.434;2022-07-24T11:42:09;32.00;96.50
14061;DHT22;7105;43.616;1.434;2022-07-24T11:44:41;32.40;96.30
14061;DHT22;7105;43.616;1.434;2022-07-24T11:47:10;32.30;95.90
14061;DHT22;7105;43.616;1.434;2022-07-24T11:49:44;32.40;96.20
14061;DHT22;7105;43.616;1.434;2022-07-24T11:52:19;32.60;96.80
14061;DHT22;7105;43.616;1.434;2022-07-24T11:54:46;33.10;96.90
14061;DHT22;7105;43.616;1.434;2022-07-24T11:57:21;33.20;96.80
14061;DHT22;7105;43.616;1.434;2022-07-24T11:59:49;33.00;96.80
14061;DHT22;7105;43.616;1.434;2022-07-24T12:02:15;33.20;97.00
14061;DHT22;7105;43.616;1.434;2022-07-24T12:04:42;33.20;96.80
14061;DHT22;7105;43.616;1.434;2022-07-24T12:07:09;33.20;96.60
14061;DHT22;7105;43.616;1.434;2022-07-24T12:09:55;33.00;97.60
14061;DHT22;7105;43.616;1.434;2022-07-24T12:12:29;32.90;97.30
14061;DHT22;7105;43.616;1.434;2022-07-24T12:15:10;32.50;97.40
14061;DHT22;7105;43.616;1.434;2022-07-24T12:18:02;32.60;97.50
14061;DHT22;7105;43.616;1.434;2022-07-24T12:20:39;33.20;97.50
14061;DHT22;7105;43.616;1.434;2022-07-24T12:23:08;33.40;97.30
14061;DHT22;7105;43.616;1.434;2022-07-24T12:25:34;32.90;97.50
14061;DHT22;7105;43.616;1.434;2022-07-24T12:28:10;33.00;97.50
14061;DHT22;7105;43.616;1.434;2022-07-24T12:30:41;32.90;97.30
14061;DHT22;7105;43.616;1.434;2022-07-24T12:33:27;33.20;97.40
14061;DHT22;7105;43.616;1.434;2022-07-24T12:35:59;33.50;97.10
14061;DHT22;7105;43.616;1.434;2022-07-24T12:38:30;33.40;97.30
14061;DHT22;7105;43.616;1.434;2022-07-24T12:41:16;33.80;97.00
14061;DHT22;7105;43.616;1.434;2022-07-24T12:46:16;33.50;97.20
14061;DHT22;7105;43.616;1.434;2022-07-24T12:52:03;33.90;96.90
14061;DHT22;7105;43.616;1.434;2022-07-24T12:54:34;34.00;96.60
14061;DHT22;7105;43.616;1.434;2022-07-24T12:57:02;34.10;96.70
14061;DHT22;7105;43.616;1.434;2022-07-24T12:59:37;34.30;95.80
14061;DHT22;7105;43.616;1.434;2022-07-24T13:02:09;34.40;96.00
14061;DHT22;7105;43.616;1.434;2022-07-24T13:04:50;34.00;95.80
14061;DHT22;7105;43.616;1.434;2022-07-24T13:07:22;33.70;96.30
14061;DHT22;7105;43.616;1.434;2022-07-24T13:09:48;34.00;96.70
14061;DHT22;7105;43.616;1.434;2022-07-24T13:12:15;33.80;96.60
14061;DHT22;7105;43.616;1.434;2022-07-24T13:14:41;34.00;96.50
14061;DHT22;7105;43.616;1.434;2022-07-24T13:17:08;34.40;96.10
14061;DHT22;7105;43.616;1.434;2022-07-24T13:19:36;34.50;95.90
14061;DHT22;7105;43.616;1.434;2022-07-24T13:22:03;34.70;96.10
14061;DHT22;7105;43.616;1.434;2022-07-24T13:24:28;34.30;95.70
14061;DHT22;7105;43.616;1.434;2022-07-24T13:26:55;34.40;95.60
14061;DHT22;7105;43.616;1.434;2022-07-24T13:29:21;34.40;95.80
14061;DHT22;7105;43.616;1.434;2022-07-24T13:31:49;34.50;95.30
14061;DHT22;7105;43.616;1.434;2022-07-24T13:34:15;34.60;94.80
14061;DHT22;7105;43.616;1.434;2022-07-24T13:36:41;34.80;94.70
14061;DHT22;7105;43.616;1.434;2022-07-24T13:39:08;34.50;94.70
14061;DHT22;7105;43.616;1.434;2022-07-24T13:41:33;34.50;94.40
14061;DHT22;7105;43.616;1.434;2022-07-24T13:43:59;34.60;94.30
14061;DHT22;7105;43.616;1.434;2022-07-24T13:46:25;34.70;94.30
14061;DHT22;7105;43.616;1.434;2022-07-24T13:48:51;34.80;94.60
14061;DHT22;7105;43.616;1.434;2022-07-24T13:51:18;35.00;93.90
14061;DHT22;7105;43.616;1.434;2022-07-24T13:53:44;34.90;93.50
14061;DHT22;7105;43.616;1.434;2022-07-24T13:56:11;34.70;93.70
14061;DHT22;7105;43.616;1.434;2022-07-24T13:58:37;35.00;94.10
14061;DHT22;7105;43.616;1.434;2022-07-24T14:01:06;35.20;93.60
14061;DHT22;7105;43.616;1.434;2022-07-24T14:03:33;35.20;93.30
14061;DHT22;7105;43.616;1.434;2022-07-24T14:05:59;35.00;92.80
14061;DHT22;7105;43.616;1.434;2022-07-24T14:08:25;35.10;93.30
14061;DHT22;7105;43.616;1.434;2022-07-24T14:10:51;35.20;93.30
14061;DHT22;7105;43.616;1.434;2022-07-24T14:13:16;35.00;93.30
14061;DHT22;7105;43.616;1.434;2022-07-24T14:15:42;34.90;93.20
14061;DHT22;7105;43.616;1.434;2022-07-24T14:18:09;35.10;93.20
14061;DHT22;7105;43.616;1.434;2022-07-24T14:20:35;35.30;93.10
14061;DHT22;7105;43.616;1.434;2022-07-24T14:23:00;35.30;93.20
14061;DHT22;7105;43.616;1.434;2022-07-24T14:25:26;35.40;92.80
14061;DHT22;7105;43.616;1.434;2022-07-24T14:27:52;35.50;92.50
14061;DHT22;7105;43.616;1.434;2022-07-24T14:30:19;35.50;92.80
14061;DHT22;7105;43.616;1.434;2022-07-24T14:32:45;35.30;92.30
14061;DHT22;7105;43.616;1.434;2022-07-24T14:35:10;35.40;92.60
14061;DHT22;7105;43.616;1.434;2022-07-24T14:37:37;35.60;92.70
14061;DHT22;7105;43.616;1.434;2022-07-24T14:40:05;35.60;92.60
14061;DHT22;7105;43.616;1.434;2022-07-24T14:42:32;36.00;92.60
14061;DHT22;7105;43.616;1.434;2022-07-24T14:44:58;35.90;92.60
14061;DHT22;7105;43.616;1.434;2022-07-24T14:47:24;35.90;92.30
14061;DHT22;7105;43.616;1.434;2022-07-24T14:49:49;36.10;92.20
14061;DHT22;7105;43.616;1.434;2022-07-24T14:52:16;36.10;91.90
14061;DHT22;7105;43.616;1.434;2022-07-24T14:54:44;36.00;92.10
14061;DHT22;7105;43.616;1.434;2022-07-24T14:57:11;36.00;91.60
14061;DHT22;7105;43.616;1.434;2022-07-24T14:59:36;35.90;92.20
14061;DHT22;7105;43.616;1.434;2022-07-24T15:02:02;35.80;91.70
14061;DHT22;7105;43.616;1.434;2022-07-24T15:04:28;35.80;91.90
14061;DHT22;7105;43.616;1.434;2022-07-24T15:06:53;35.80;91.60
14061;DHT22;7105;43.616;1.434;2022-07-24T15:09:19;35.90;91.80
14061;DHT22;7105;43.616;1.434;2022-07-24T15:11:45;35.90;91.90
14061;DHT22;7105;43.616;1.434;2022-07-24T15:14:11;35.90;91.80
14061;DHT22;7105;43.616;1.434;2022-07-24T15:16:36;36.00;91.80
14061;DHT22;7105;43.616;1.434;2022-07-24T15:19:02;36.00;91.80
14061;DHT22;7105;43.616;1.434;2022-07-24T15:21:28;35.90;92.00
14061;DHT22;7105;43.616;1.434;2022-07-24T15:23:53;36.20;92.00
14061;DHT22;7105;43.616;1.434;2022-07-24T15:26:19;36.40;91.80
14061;DHT22;7105;43.616;1.434;2022-07-24T15:28:45;36.10;91.40
14061;DHT22;7105;43.616;1.434;2022-07-24T15:31:10;36.10;91.50
14061;DHT22;7105;43.616;1.434;2022-07-24T15:33:39;36.20;91.70
14061;DHT22;7105;43.616;1.434;2022-07-24T15:36:04;36.20;91.40
14061;DHT22;7105;43.616;1.434;2022-07-24T15:38:30;36.20;91.80
14061;DHT22;7105;43.616;1.434;2022-07-24T15:40:56;36.30;91.60
14061;DHT22;7105;43.616;1.434;2022-07-24T15:43:22;36.40;91.40
14061;DHT22;7105;43.616;1.434;2022-07-24T15:45:47;36.30;91.70
14061;DHT22;7105;43.616;1.434;2022-07-24T15:48:13;36.20;91.60
14061;DHT22;7105;43.616;1.434;2022-07-24T15:50:38;36.10;91.10
14061;DHT22;7105;43.616;1.434;2022-07-24T15:53:04;36.10;91.20
14061;DHT22;7105;43.616;1.434;2022-07-24T15:55:30;36.00;90.80
14061;DHT22;7105;43.616;1.434;2022-07-24T15:57:55;35.90;90.90
14061;DHT22;7105;43.616;1.434;2022-07-24T16:00:21;35.90;90.80
14061;DHT22;7105;43.616;1.434;2022-07-24T16:02:47;36.00;91.00
14061;DHT22;7105;43.616;1.434;2022-07-24T16:05:14;36.10;91.10
14061;DHT22;7105;43.616;1.434;2022-07-24T16:07:42;36.00;91.00
14061;DHT22;7105;43.616;1.434;2022-07-24T16:10:08;36.10;91.10
14061;DHT22;7105;43.616;1.434;2022-07-24T16:12:34;36.10;91.00
14061;DHT22;7105;43.616;1.434;2022-07-24T16:15:00;36.10;91.20
14061;DHT22;7105;43.616;1.434;2022-07-24T16:17:26;36.20;91.20
14061;DHT22;7105;43.616;1.434;2022-07-24T16:19:52;36.30;91.50
14061;DHT22;7105;43.616;1.434;2022-07-24T16:22:17;36.20;91.10
14061;DHT22;7105;43.616;1.434;2022-07-24T16:24:43;36.30;91.60
14061;DHT22;7105;43.616;1.434;2022-07-24T16:27:09;36.40;91.20